Time;durP1;ratioP1;P1;durP2;ratioP2;P2;SDS_P1;SDS_P2;PMS_P1;PMS_P2;Temp;Humidity;BMP_temperature;BMP_pressure;BME280_temperature;BME280_humidity;BME280_pressure;Samples;Min_cycle;Max_cycle;Signal;HPM_P1;HPM_P2
2024/02/06 00:01:09;;;;;;;0.80;0.80;;;9.80;99.90;;;;;;4969321;28;20247;-81
2024/02/06 00:03:36;;;;;;;0.60;0.60;;;9.80;99.90;;;;;;4962618;28;20530;-82
2024/02/06 00:06:03;;;;;;;0.75;0.75;;;9.80;99.90;;;;;;4964896;28;20266;-83
2024/02/06 00:08:30;;;;;;;0.63;0.63;;;9.80;99.90;;;;;;4953893;28;20227;-79
2024/02/06 00:10:58;;;;;;;0.70;0.70;;;9.80;99.90;;;;;;4942745;28;20239;-81
2024/02/06 00:13:25;;;;;;;1.13;1.13;;;9.80;99.90;;;;;;4955826;28;20286;-82
2024/02/06 00:15:52;;;;;;;0.70;0.70;;;9.80;99.90;;;;;;4959376;28;20218;-78
2024/02/06 00:18:19;;;;;;;0.60;0.60;;;9.80;99.90;;;;;;4950440;28;20215;-81
2024/02/06 00:20:46;;;;;;;1.98;1.88;;;9.80;99.90;;;;;;4955128;28;20210;-78
2024/02/06 00:23:12;;;;;;;0.70;0.70;;;9.80;99.90;;;;;;4954053;28;20523;-79
2024/02/06 00:25:39;;;;;;;0.70;0.70;;;9.80;99.90;;;;;;4965038;28;20215;-79
2024/02/06 00:28:06;;;;;;;0.80;0.80;;;9.80;99.90;;;;;;4972434;28;20507;-79
2024/02/06 00:30:37;;;;;;;0.70;0.70;;;9.70;99.90;;;;;;4949408;28;20222;-79
2024/02/06 00:33:04;;;;;;;0.73;0.73;;;9.80;99.90;;;;;;4948959;28;20238;-79
2024/02/06 00:35:31;;;;;;;1.02;1.02;;;9.70;99.90;;;;;;4967767;28;20210;-79
2024/02/06 00:38:01;;;;;;;0.60;0.60;;;9.70;99.90;;;;;;4956018;28;20214;-81
2024/02/06 00:40:28;;;;;;;0.80;0.80;;;9.70;99.90;;;;;;4945557;29;20453;-79
2024/02/06 00:42:56;;;;;;;0.60;0.60;;;9.60;99.90;;;;;;4941598;28;20210;-82
2024/02/06 00:45:23;;;;;;;0.80;0.80;;;9.60;99.90;;;;;;4947219;29;20254;-80
2024/02/06 00:47:51;;;;;;;0.63;0.63;;;9.50;99.90;;;;;;4945021;28;20258;-80
2024/02/06 00:50:19;;;;;;;1.30;1.20;;;9.60;99.90;;;;;;4945940;28;20238;-83
2024/02/06 00:52:47;;;;;;;0.50;0.50;;;9.60;99.90;;;;;;4934281;29;20231;-83
2024/02/06 00:55:14;;;;;;;0.60;0.60;;;9.60;99.90;;;;;;4956232;28;20246;-81
2024/02/06 00:57:41;;;;;;;6.30;1.70;;;9.60;99.90;;;;;;4952444;28;20204;-83
2024/02/06 01:00:09;;;;;;;0.60;0.60;;;9.60;99.90;;;;;;4956323;28;20555;-80
2024/02/06 01:02:36;;;;;;;0.80;0.80;;;9.60;99.90;;;;;;4929881;29;20246;-83
2024/02/06 01:05:03;;;;;;;0.52;0.52;;;9.60;99.90;;;;;;4949320;28;20242;-81
2024/02/06 01:07:30;;;;;;;1.08;1.08;;;9.50;99.90;;;;;;4949927;29;20391;-81
2024/02/06 01:09:58;;;;;;;0.60;0.60;;;9.60;99.90;;;;;;4930288;29;20235;-81
2024/02/06 01:12:25;;;;;;;1.52;1.45;;;9.60;99.90;;;;;;4960808;28;20211;-78
2024/02/06 01:14:52;;;;;;;0.50;0.50;;;9.60;99.90;;;;;;4964899;28;20254;-80
2024/02/06 01:17:19;;;;;;;0.60;0.60;;;9.50;99.90;;;;;;4985281;28;20510;-80
2024/02/06 01:19:46;;;;;;;0.68;0.68;;;9.50;99.90;;;;;;4989406;28;20273;-80
2024/02/06 01:22:13;;;;;;;0.70;0.70;;;9.50;99.90;;;;;;4974340;28;20217;-80
2024/02/06 01:24:40;;;;;;;0.60;0.60;;;9.50;99.90;;;;;;4969920;28;20230;-81
2024/02/06 01:27:07;;;;;;;0.60;0.60;;;9.50;99.90;;;;;;4980888;28;20203;-80
2024/02/06 01:29:34;;;;;;;2.20;2.00;;;9.40;99.90;;;;;;4970508;28;20258;-83
2024/02/06 01:32:01;;;;;;;0.90;0.90;;;9.50;99.90;;;;;;4953818;28;20283;-83
2024/02/06 01:34:28;;;;;;;0.60;0.60;;;9.60;99.90;;;;;;4950425;28;20278;-82
2024/02/06 01:36:56;;;;;;;0.60;0.60;;;9.50;99.90;;;;;;4951159;28;20235;-81
2024/02/06 01:39:23;;;;;;;0.60;0.60;;;9.50;99.90;;;;;;4960166;28;20546;-82
2024/02/06 01:41:50;;;;;;;0.63;0.63;;;9.50;99.90;;;;;;4957186;28;20274;-79
2024/02/06 01:44:16;;;;;;;0.70;0.70;;;9.50;99.90;;;;;;4950853;28;20278;-82
2024/02/06 01:46:44;;;;;;;0.50;0.50;;;9.50;99.90;;;;;;4960291;28;20203;-82
2024/02/06 01:49:11;;;;;;;0.50;0.50;;;9.50;99.90;;;;;;4950685;28;20251;-82
2024/02/06 01:51:40;;;;;;;0.75;0.75;;;9.50;99.90;;;;;;4962270;28;20233;-82
2024/02/06 01:54:07;;;;;;;0.90;0.90;;;9.50;99.90;;;;;;4936421;29;20207;-82
2024/02/06 01:56:35;;;;;;;1.55;1.50;;;9.50;99.90;;;;;;4948683;28;20214;-83
2024/02/06 01:59:03;;;;;;;1.70;1.60;;;9.50;99.90;;;;;;4951959;28;20367;-84
2024/02/06 02:01:30;;;;;;;0.60;0.60;;;9.40;99.90;;;;;;4939325;29;20270;-84
2024/02/06 02:03:59;;;;;;;1.10;1.00;;;9.50;99.90;;;;;;4930858;28;20206;-81
2024/02/06 02:06:26;;;;;;;0.60;0.60;;;9.50;99.90;;;;;;4956822;28;20221;-83
2024/02/06 02:08:53;;;;;;;2.90;2.72;;;9.40;99.90;;;;;;4969941;28;20211;-79
2024/02/06 02:11:20;;;;;;;0.80;0.80;;;9.40;99.90;;;;;;4976655;28;20210;-82
2024/02/06 02:13:50;;;;;;;2.47;2.28;;;9.40;99.90;;;;;;4974802;28;20223;-79
2024/02/06 02:16:19;;;;;;;0.88;0.88;;;9.40;99.90;;;;;;4978168;28;20251;-80
2024/02/06 02:18:47;;;;;;;0.60;0.60;;;9.40;99.90;;;;;;4969757;28;20225;-80
2024/02/06 02:21:15;;;;;;;5.93;1.80;;;9.40;99.90;;;;;;4952718;28;20250;-78
2024/02/06 02:23:45;;;;;;;1.65;1.55;;;9.40;99.90;;;;;;4955093;28;20240;-81
2024/02/06 02:26:13;;;;;;;1.35;1.33;;;9.40;99.90;;;;;;4950639;28;20215;-82
2024/02/06 02:28:42;;;;;;;0.80;0.80;;;9.30;99.90;;;;;;4945792;28;20231;-82
2024/02/06 02:31:10;;;;;;;1.55;1.45;;;9.30;99.90;;;;;;4959021;28;20215;-79
2024/02/06 02:33:37;;;;;;;9.05;1.92;;;9.30;99.90;;;;;;4964432;28;20211;-84
2024/02/06 02:36:08;;;;;;;0.85;0.85;;;9.20;99.90;;;;;;4946293;28;20218;-82
2024/02/06 02:38:37;;;;;;;0.90;0.90;;;9.20;99.90;;;;;;4956042;28;20211;-81
2024/02/06 02:41:04;;;;;;;0.80;0.80;;;9.30;99.90;;;;;;4950474;28;20226;-82
2024/02/06 02:43:31;;;;;;;0.90;0.90;;;9.30;99.90;;;;;;4963575;28;20632;-81
2024/02/06 02:45:58;;;;;;;1.23;1.23;;;9.30;99.90;;;;;;4959562;28;20516;-81
2024/02/06 02:48:25;;;;;;;1.15;1.15;;;9.20;99.90;;;;;;4967312;28;20211;-79
2024/02/06 02:50:52;;;;;;;1.25;1.25;;;9.20;99.90;;;;;;4949932;28;20240;-83
2024/02/06 02:53:19;;;;;;;1.17;1.17;;;9.20;99.90;;;;;;4944417;29;20249;-80
2024/02/06 02:55:46;;;;;;;2.13;2.03;;;9.30;99.90;;;;;;4945116;28;20488;-82
2024/02/06 02:58:13;;;;;;;2.20;2.10;;;9.20;99.90;;;;;;4955398;28;20447;-81
2024/02/06 03:00:41;;;;;;;0.70;0.70;;;9.20;99.90;;;;;;4949562;28;20212;-81
2024/02/06 03:03:08;;;;;;;1.90;1.80;;;9.20;99.90;;;;;;4961201;28;20207;-82
2024/02/06 03:05:37;;;;;;;0.95;0.95;;;9.20;99.90;;;;;;4954268;28;20210;-80
2024/02/06 03:08:05;;;;;;;1.45;1.45;;;9.20;99.90;;;;;;4954131;28;20204;-76
2024/02/06 03:10:32;;;;;;;0.60;0.60;;;9.10;99.90;;;;;;4960058;28;20315;-79
2024/02/06 03:12:59;;;;;;;1.05;1.05;;;9.20;99.90;;;;;;4972018;28;20199;-79
2024/02/06 03:15:26;;;;;;;0.90;0.90;;;9.10;99.90;;;;;;4950897;28;20218;-82
2024/02/06 03:17:54;;;;;;;1.45;1.35;;;9.10;99.90;;;;;;4969225;28;20262;-79
2024/02/06 03:20:21;;;;;;;4.70;2.63;;;9.20;99.90;;;;;;4969491;28;20210;-82
2024/02/06 03:22:49;;;;;;;1.60;1.50;;;9.10;99.90;;;;;;4964723;28;20215;-79
2024/02/06 03:25:16;;;;;;;1.42;1.33;;;9.10;99.90;;;;;;4956525;29;20238;-80
2024/02/06 03:27:45;;;;;;;2.70;2.60;;;9.10;99.90;;;;;;4946880;29;20274;-82
2024/02/06 03:30:13;;;;;;;0.50;0.50;;;9.10;99.90;;;;;;4931424;28;20255;-77
2024/02/06 03:32:40;;;;;;;5.60;1.73;;;9.10;99.90;;;;;;4944958;28;20491;-79
2024/02/06 03:35:07;;;;;;;14.45;1.30;;;9.10;99.90;;;;;;4968693;28;20206;-79
2024/02/06 03:37:34;;;;;;;0.70;0.70;;;9.10;99.90;;;;;;4957641;28;20427;-81
2024/02/06 03:40:02;;;;;;;2.03;1.83;;;9.20;99.90;;;;;;4937862;28;20203;-81
2024/02/06 03:42:29;;;;;;;1.75;1.65;;;9.00;99.90;;;;;;4962227;28;20218;-82
2024/02/06 03:44:55;;;;;;;2.83;2.65;;;9.10;99.90;;;;;;4967217;28;20211;-81
2024/02/06 03:47:22;;;;;;;0.80;0.80;;;9.00;99.90;;;;;;4959459;28;20249;-78
2024/02/06 03:49:49;;;;;;;0.70;0.70;;;9.10;99.90;;;;;;4965426;28;20294;-80
2024/02/06 03:52:16;;;;;;;0.60;0.60;;;9.00;99.90;;;;;;4956262;28;20283;-79
2024/02/06 03:54:43;;;;;;;1.45;1.35;;;9.00;99.90;;;;;;4963301;28;20209;-81
2024/02/06 03:57:10;;;;;;;1.80;1.55;;;9.10;99.90;;;;;;4960712;28;20214;-80
2024/02/06 03:59:37;;;;;;;4.35;1.83;;;9.10;99.90;;;;;;4970485;28;20553;-80
2024/02/06 04:02:04;;;;;;;0.60;0.60;;;9.00;99.90;;;;;;4955282;28;20232;-81
2024/02/06 04:04:31;;;;;;;0.70;0.70;;;9.00;99.90;;;;;;4944962;29;20247;-81
2024/02/06 04:06:58;;;;;;;17.38;1.60;;;9.00;99.90;;;;;;4944742;28;20208;-81
2024/02/06 04:09:25;;;;;;;1.45;1.00;;;9.00;99.90;;;;;;4963527;28;20223;-80
2024/02/06 04:11:52;;;;;;;0.70;0.70;;;8.90;99.90;;;;;;4967396;28;20234;-79
2024/02/06 04:14:19;;;;;;;12.82;3.25;;;8.90;99.90;;;;;;4962013;28;20244;-82
2024/02/06 04:16:53;;;;;;;0.60;0.60;;;8.90;99.90;;;;;;4953151;28;20239;-80
2024/02/06 04:19:22;;;;;;;0.70;0.70;;;8.80;99.90;;;;;;4965197;28;20218;-80
2024/02/06 04:21:49;;;;;;;0.68;0.68;;;8.80;99.90;;;;;;4967887;28;20495;-81
2024/02/06 04:24:17;;;;;;;2.80;2.10;;;8.80;99.90;;;;;;4957210;28;20563;-80
2024/02/06 04:26:45;;;;;;;0.63;0.63;;;8.90;99.90;;;;;;4950631;28;20211;-82
2024/02/06 04:29:12;;;;;;;4.53;2.88;;;8.80;99.90;;;;;;4963717;28;20231;-82
2024/02/06 04:31:40;;;;;;;1.60;1.50;;;8.70;99.90;;;;;;4955694;28;20211;-80
2024/02/06 04:34:08;;;;;;;0.68;0.68;;;8.70;99.90;;;;;;4960741;28;20207;-82
2024/02/06 04:36:36;;;;;;;1.95;1.23;;;8.70;99.90;;;;;;4960814;28;20265;-78
2024/02/06 04:39:06;;;;;;;0.50;0.50;;;8.70;99.90;;;;;;4955900;28;20211;-85
2024/02/06 04:41:35;;;;;;;0.90;0.90;;;8.70;99.90;;;;;;4963586;28;20221;-79
2024/02/06 04:44:03;;;;;;;0.60;0.60;;;8.80;99.90;;;;;;4961242;29;20234;-81
2024/02/06 04:46:30;;;;;;;0.50;0.50;;;8.70;99.90;;;;;;4949478;29;20284;-82
2024/02/06 04:48:57;;;;;;;0.63;0.63;;;8.70;99.90;;;;;;4955805;28;20225;-80
2024/02/06 04:51:25;;;;;;;0.70;0.70;;;8.70;99.90;;;;;;4960107;28;20330;-81
2024/02/06 04:53:52;;;;;;;0.90;0.90;;;8.80;99.90;;;;;;4959404;28;20236;-82
2024/02/06 04:56:22;;;;;;;1.25;1.15;;;8.60;99.90;;;;;;4950751;28;20279;-82
2024/02/06 04:58:50;;;;;;;0.98;0.98;;;8.60;99.90;;;;;;4948800;28;20222;-81
2024/02/06 05:01:17;;;;;;;0.60;0.60;;;8.60;99.90;;;;;;4952733;28;20274;-84
2024/02/06 05:03:45;;;;;;;0.68;0.68;;;8.70;99.90;;;;;;4942240;29;20411;-80
2024/02/06 05:06:12;;;;;;;0.80;0.80;;;8.70;99.90;;;;;;4945765;28;20719;-81
2024/02/06 05:08:39;;;;;;;0.80;0.80;;;8.70;99.90;;;;;;4955289;28;20211;-80
2024/02/06 05:11:07;;;;;;;0.60;0.60;;;8.70;99.90;;;;;;4955721;28;20250;-82
2024/02/06 05:13:34;;;;;;;0.90;0.90;;;8.60;99.90;;;;;;4943091;29;20196;-82
2024/02/06 05:16:02;;;;;;;0.88;0.88;;;8.60;99.90;;;;;;4953650;28;20215;-81
2024/02/06 05:18:29;;;;;;;0.73;0.73;;;8.60;99.90;;;;;;4953802;28;20272;-82
2024/02/06 05:20:59;;;;;;;0.50;0.50;;;8.60;99.90;;;;;;4942174;29;20215;-81
2024/02/06 05:23:26;;;;;;;0.50;0.50;;;8.50;99.90;;;;;;4948577;28;20218;-83
2024/02/06 05:25:53;;;;;;;6.53;2.60;;;8.50;99.90;;;;;;4944345;28;20282;-81
2024/02/06 05:28:20;;;;;;;1.38;1.38;;;8.50;99.90;;;;;;4945888;28;20207;-79
2024/02/06 05:30:48;;;;;;;3.92;3.63;;;8.60;99.90;;;;;;4961107;28;20332;-80
2024/02/06 05:33:15;;;;;;;1.83;1.67;;;8.50;99.90;;;;;;4947180;28;20212;-81
2024/02/06 05:35:44;;;;;;;3.00;2.55;;;8.50;99.90;;;;;;4957316;28;20203;-80
2024/02/06 05:38:15;;;;;;;0.70;0.70;;;8.50;99.90;;;;;;4939173;28;20241;-82
2024/02/06 05:40:45;;;;;;;0.85;0.85;;;8.60;99.90;;;;;;4954818;28;20339;-80
2024/02/06 05:43:15;;;;;;;1.95;1.80;;;8.50;99.90;;;;;;4959537;28;20203;-81
2024/02/06 05:45:42;;;;;;;1.58;1.48;;;8.60;99.90;;;;;;4968608;28;20257;-81
2024/02/06 05:48:09;;;;;;;0.80;0.80;;;8.50;99.90;;;;;;4949823;28;20279;-77
2024/02/06 05:50:36;;;;;;;1.50;1.50;;;8.50;99.90;;;;;;4950481;28;20227;-83
2024/02/06 05:53:03;;;;;;;0.60;0.60;;;8.50;99.90;;;;;;4954766;28;20205;-80
2024/02/06 05:55:30;;;;;;;1.17;1.17;;;8.50;99.90;;;;;;4961473;28;20235;-81
2024/02/06 05:57:59;;;;;;;1.00;1.00;;;8.50;99.90;;;;;;4949976;28;20211;-80
2024/02/06 06:00:26;;;;;;;1.27;1.17;;;8.60;99.90;;;;;;4958777;28;20214;-79
2024/02/06 06:02:54;;;;;;;0.50;0.50;;;8.60;99.90;;;;;;4951504;28;20207;-81
2024/02/06 06:05:24;;;;;;;0.50;0.50;;;8.50;99.90;;;;;;4929612;28;20215;-80
2024/02/06 06:07:51;;;;;;;0.50;0.50;;;8.50;99.90;;;;;;4951629;28;20935;-79
2024/02/06 06:10:18;;;;;;;0.50;0.50;;;8.60;99.90;;;;;;4932563;28;20784;-81
2024/02/06 06:12:46;;;;;;;0.70;0.70;;;8.60;99.90;;;;;;4958811;28;20205;-81
2024/02/06 06:15:14;;;;;;;0.95;0.95;;;8.60;99.90;;;;;;4954546;28;20282;-82
2024/02/06 06:17:41;;;;;;;0.60;0.60;;;8.50;99.90;;;;;;4931863;29;20322;-77
2024/02/06 06:20:09;;;;;;;1.17;1.13;;;8.50;99.90;;;;;;4961696;28;20202;-78
2024/02/06 06:22:36;;;;;;;0.60;0.60;;;8.50;99.90;;;;;;4947803;28;20208;-80
2024/02/06 06:25:05;;;;;;;0.80;0.80;;;8.50;99.90;;;;;;4950000;28;20267;-80
2024/02/06 06:27:31;;;;;;;1.77;1.67;;;8.40;99.90;;;;;;4945064;28;20219;-80
2024/02/06 06:29:59;;;;;;;2.05;1.63;;;8.40;99.90;;;;;;4944747;28;20226;-78
2024/02/06 06:32:26;;;;;;;0.60;0.60;;;8.50;99.90;;;;;;4952809;28;20535;-79
2024/02/06 06:34:53;;;;;;;0.57;0.57;;;8.50;99.90;;;;;;4951100;28;20387;-79
2024/02/06 06:37:20;;;;;;;0.75;0.75;;;8.50;99.90;;;;;;4939461;28;20274;-81
2024/02/06 06:39:48;;;;;;;1.48;1.42;;;8.50;99.90;;;;;;4954946;28;20275;-81
2024/02/06 06:42:17;;;;;;;0.98;0.98;;;8.50;99.90;;;;;;4952814;28;20212;-80
2024/02/06 06:44:44;;;;;;;0.75;0.75;;;8.50;99.90;;;;;;4945170;28;20222;-79
2024/02/06 06:47:11;;;;;;;4.25;1.45;;;8.50;99.90;;;;;;4933433;29;20250;-80
2024/02/06 06:49:38;;;;;;;0.73;0.73;;;8.50;99.90;;;;;;4951839;28;20211;-81
2024/02/06 06:52:07;;;;;;;1.17;1.17;;;8.50;99.90;;;;;;4953872;28;20224;-81
2024/02/06 06:54:35;;;;;;;1.98;1.88;;;8.50;99.90;;;;;;4947559;28;20278;-80
2024/02/06 06:57:05;;;;;;;0.50;0.50;;;8.50;99.90;;;;;;4965104;28;20275;-81
2024/02/06 06:59:33;;;;;;;0.70;0.70;;;8.50;99.90;;;;;;4965684;28;20199;-83
2024/02/06 07:02:00;;;;;;;0.60;0.60;;;8.50;99.90;;;;;;4966935;28;20329;-83
2024/02/06 07:04:28;;;;;;;1.00;1.00;;;8.50;99.90;;;;;;4968282;28;20218;-79
2024/02/06 07:06:55;;;;;;;2.88;1.67;;;8.50;99.90;;;;;;4956197;28;20235;-79
2024/02/06 07:09:23;;;;;;;1.02;1.02;;;8.50;99.90;;;;;;4962544;28;20270;-80
2024/02/06 07:11:51;;;;;;;10.02;1.88;;;8.50;99.90;;;;;;4950755;28;20231;-80
2024/02/06 07:14:18;;;;;;;0.60;0.60;;;8.50;99.90;;;;;;4949089;28;20238;-80
2024/02/06 07:16:45;;;;;;;0.50;0.50;;;8.50;99.90;;;;;;4964343;28;20235;-79
2024/02/06 07:19:16;;;;;;;0.93;0.93;;;8.50;99.90;;;;;;4955604;28;20391;-82
2024/02/06 07:21:56;;;;;;;1.40;1.30;;;8.60;99.90;;;;;;4952381;28;20203;-79
2024/02/06 07:24:24;;;;;;;0.60;0.60;;;8.60;99.90;;;;;;4946666;28;20416;-80
2024/02/06 07:26:52;;;;;;;0.50;0.50;;;8.50;99.90;;;;;;4952474;28;20200;-79
2024/02/06 07:29:20;;;;;;;0.80;0.80;;;8.60;99.90;;;;;;4960415;28;20253;-79
2024/02/06 07:31:46;;;;;;;0.95;0.95;;;8.60;99.90;;;;;;4930272;29;20299;-80
2024/02/06 07:34:14;;;;;;;0.50;0.50;;;8.60;99.90;;;;;;4957233;28;20270;-78
2024/02/06 07:36:41;;;;;;;1.77;1.23;;;8.60;99.90;;;;;;4952259;28;20593;-80
2024/02/06 07:39:08;;;;;;;0.60;0.60;;;8.60;99.90;;;;;;4931813;29;20275;-78
2024/02/06 07:41:35;;;;;;;1.25;1.15;;;8.60;99.90;;;;;;4939674;28;20267;-80
2024/02/06 07:44:03;;;;;;;0.80;0.80;;;8.60;99.90;;;;;;4946086;29;20278;-81
2024/02/06 07:46:31;;;;;;;0.60;0.60;;;8.60;99.90;;;;;;4934829;28;20456;-81
2024/02/06 07:48:58;;;;;;;1.65;1.55;;;8.70;99.90;;;;;;4952154;28;20255;-81
2024/02/06 07:51:26;;;;;;;6.75;1.60;;;8.70;99.90;;;;;;4955916;28;20239;-80
2024/02/06 07:53:54;;;;;;;0.60;0.60;;;8.70;99.90;;;;;;4971105;28;20199;-80
2024/02/06 07:56:21;;;;;;;0.80;0.80;;;8.80;99.90;;;;;;4958229;28;20231;-80
2024/02/06 07:58:48;;;;;;;1.60;1.58;;;8.80;99.90;;;;;;4961731;28;20204;-81
2024/02/06 08:01:15;;;;;;;0.60;0.60;;;8.90;99.90;;;;;;4950944;28;20214;-81
2024/02/06 08:03:42;;;;;;;0.50;0.50;;;8.90;99.90;;;;;;4938977;28;20211;-80
2024/02/06 08:06:09;;;;;;;1.10;0.95;;;8.90;99.90;;;;;;4952225;28;20274;-80
2024/02/06 08:08:37;;;;;;;2.05;1.95;;;8.90;99.90;;;;;;4942221;28;20231;-78
2024/02/06 08:11:04;;;;;;;0.60;0.60;;;8.90;99.90;;;;;;4958873;28;20262;-77
2024/02/06 08:13:31;;;;;;;0.75;0.75;;;9.00;99.90;;;;;;4962756;29;20203;-80
2024/02/06 08:15:58;;;;;;;1.02;1.02;;;9.00;99.90;;;;;;4962870;28;20207;-79
2024/02/06 08:18:25;;;;;;;1.23;1.23;;;9.00;99.90;;;;;;4954378;28;20207;-79
2024/02/06 08:20:52;;;;;;;0.77;0.77;;;8.90;99.90;;;;;;4951215;28;20212;-79
2024/02/06 08:23:19;;;;;;;0.70;0.70;;;9.00;99.90;;;;;;4954016;28;20259;-78
2024/02/06 08:25:46;;;;;;;0.60;0.60;;;9.00;99.90;;;;;;4950830;28;20247;-80
2024/02/06 08:28:13;;;;;;;0.50;0.50;;;8.90;99.90;;;;;;4960767;28;20444;-78
2024/02/06 08:30:47;;;;;;;0.50;0.50;;;8.90;99.90;;;;;;4922477;28;20231;-79
2024/02/06 08:33:14;;;;;;;0.57;0.57;;;8.90;99.90;;;;;;4950991;28;20267;-78
2024/02/06 08:35:41;;;;;;;1.48;1.48;;;9.00;99.90;;;;;;4949846;28;20378;-78
2024/02/06 08:38:09;;;;;;;0.60;0.60;;;9.00;99.90;;;;;;4951462;28;20199;-77
2024/02/06 08:40:36;;;;;;;0.60;0.60;;;9.10;99.90;;;;;;4936297;28;20215;-80
2024/02/06 08:43:04;;;;;;;1.02;1.02;;;9.10;99.90;;;;;;4937762;29;20207;-80
2024/02/06 08:45:31;;;;;;;0.60;0.60;;;9.10;99.90;;;;;;4958437;28;20211;-80
2024/02/06 08:47:58;;;;;;;1.27;1.27;;;9.00;99.90;;;;;;4944307;28;20214;-79
2024/02/06 08:50:25;;;;;;;0.60;0.60;;;9.00;99.90;;;;;;4951874;28;20218;-79
2024/02/06 08:52:52;;;;;;;0.85;0.85;;;9.10;99.90;;;;;;4953857;29;20211;-77
2024/02/06 08:55:19;;;;;;;0.50;0.50;;;9.20;99.90;;;;;;4954235;29;20722;-77
2024/02/06 08:57:46;;;;;;;0.60;0.60;;;9.20;99.90;;;;;;4941321;28;20303;-81
2024/02/06 09:00:16;;;;;;;1.75;1.65;;;9.30;99.90;;;;;;4947147;29;20500;-80
2024/02/06 09:02:43;;;;;;;0.60;0.60;;;9.40;99.90;;;;;;4950691;28;20211;-78
2024/02/06 09:05:10;;;;;;;0.60;0.60;;;9.50;99.90;;;;;;4943006;28;20377;-77
2024/02/06 09:07:38;;;;;;;0.80;0.80;;;9.60;99.90;;;;;;4931302;28;20270;-78
2024/02/06 09:10:06;;;;;;;2.60;1.45;;;9.60;99.90;;;;;;4950970;29;20200;-78
2024/02/06 09:12:33;;;;;;;0.65;0.65;;;9.50;99.90;;;;;;4936128;28;20252;-79
2024/02/06 09:15:01;;;;;;;0.60;0.60;;;9.60;99.90;;;;;;4952639;28;20474;-78
2024/02/06 09:17:28;;;;;;;0.60;0.60;;;9.50;99.90;;;;;;4933016;29;20219;-79
2024/02/06 09:19:55;;;;;;;0.77;0.77;;;9.50;99.90;;;;;;4952679;29;20214;-79
2024/02/06 09:22:22;;;;;;;2.15;2.05;;;9.60;99.90;;;;;;4957923;28;20218;-80
2024/02/06 09:24:49;;;;;;;0.70;0.70;;;9.70;99.90;;;;;;4954872;28;20519;-81
2024/02/06 09:27:17;;;;;;;0.85;0.85;;;9.90;99.90;;;;;;4951421;28;20566;-80
2024/02/06 09:29:43;;;;;;;0.80;0.80;;;10.00;99.90;;;;;;4956000;28;20207;-81
2024/02/06 09:32:10;;;;;;;1.70;1.60;;;10.10;99.90;;;;;;4946077;28;20487;-80
2024/02/06 09:34:37;;;;;;;0.60;0.60;;;10.10;99.90;;;;;;4948566;28;20274;-81
2024/02/06 09:37:04;;;;;;;0.93;0.93;;;10.10;99.90;;;;;;4950495;28;20219;-79
2024/02/06 09:39:31;;;;;;;1.35;1.25;;;10.00;99.90;;;;;;4932424;29;20413;-82
2024/02/06 09:42:01;;;;;;;1.67;1.58;;;10.00;99.90;;;;;;4962814;28;20245;-79
2024/02/06 09:44:29;;;;;;;1.33;1.33;;;9.90;99.90;;;;;;4949200;28;20224;-80
2024/02/06 09:47:00;;;;;;;0.90;0.90;;;9.90;99.90;;;;;;4952411;28;20216;-78
2024/02/06 09:49:28;;;;;;;0.70;0.70;;;9.90;99.90;;;;;;4941529;29;20203;-81
2024/02/06 09:51:57;;;;;;;0.60;0.60;;;9.90;99.90;;;;;;4952917;28;20226;-80
2024/02/06 09:54:28;;;;;;;1.17;1.17;;;9.90;99.90;;;;;;4953712;29;20215;-77
2024/02/06 09:56:56;;;;;;;1.77;1.67;;;10.00;99.90;;;;;;4942495;28;20204;-79
2024/02/06 09:59:24;;;;;;;0.70;0.70;;;9.90;99.90;;;;;;4930928;29;20199;-81
2024/02/06 10:01:53;;;;;;;2.25;2.15;;;10.00;99.90;;;;;;4949953;28;20279;-80
2024/02/06 10:04:21;;;;;;;0.60;0.60;;;10.00;99.90;;;;;;4960672;29;20199;-79
2024/02/06 10:06:48;;;;;;;0.50;0.50;;;9.90;99.90;;;;;;4931931;28;20239;-77
2024/02/06 10:09:18;;;;;;;0.50;0.50;;;9.90;99.90;;;;;;4953917;28;20238;-79
2024/02/06 10:11:44;;;;;;;0.60;0.60;;;10.10;99.90;;;;;;4956133;28;20235;-80
2024/02/06 10:14:12;;;;;;;0.70;0.70;;;10.20;99.90;;;;;;4940604;29;20475;-79
2024/02/06 10:16:41;;;;;;;0.70;0.70;;;10.10;99.90;;;;;;4953796;28;20279;-81
2024/02/06 10:19:09;;;;;;;0.60;0.60;;;10.20;99.90;;;;;;4966903;28;20432;-78
2024/02/06 10:21:36;;;;;;;0.50;0.50;;;10.20;99.90;;;;;;4935553;28;20215;-80
2024/02/06 10:24:07;;;;;;;0.50;0.50;;;10.20;99.90;;;;;;4961879;28;20208;-78
2024/02/06 10:26:34;;;;;;;0.60;0.60;;;10.20;99.90;;;;;;4964065;28;20250;-82
2024/02/06 10:29:05;;;;;;;1.15;1.05;;;10.30;99.90;;;;;;4955890;28;20563;-80
2024/02/06 10:31:33;;;;;;;0.60;0.60;;;10.20;99.90;;;;;;4953143;28;20294;-79
2024/02/06 10:34:11;;;;;;;0.60;0.60;;;10.20;99.90;;;;;;4965058;28;20213;-80
2024/02/06 10:36:39;;;;;;;0.60;0.60;;;10.20;99.90;;;;;;4959750;29;20207;-79
2024/02/06 10:39:09;;;;;;;0.70;0.70;;;10.20;99.90;;;;;;4955534;28;20199;-78
2024/02/06 10:41:37;;;;;;;2.25;2.15;;;10.20;99.90;;;;;;4946742;29;20231;-77
2024/02/06 10:44:28;;;;;;;1.05;1.05;;;10.20;99.90;;;;;;4951082;28;20283;-80
2024/02/06 10:47:02;;;;;;;0.63;0.63;;;10.30;99.90;;;;;;4949721;28;20311;-78
2024/02/06 10:49:32;;;;;;;0.70;0.70;;;10.20;99.90;;;;;;4957375;29;20216;-78
2024/02/06 10:52:04;;;;;;;0.60;0.60;;;10.20;99.90;;;;;;4953016;29;20235;-80
2024/02/06 10:54:34;;;;;;;0.60;0.60;;;10.30;99.90;;;;;;4949778;29;20234;-78
2024/02/06 10:57:09;;;;;;;0.70;0.70;;;10.30;99.90;;;;;;4956562;28;20211;-78
2024/02/06 10:59:48;;;;;;;1.02;1.02;;;10.30;99.90;;;;;;4939659;29;20211;-82
2024/02/06 11:02:27;;;;;;;2.90;2.25;;;10.40;99.90;;;;;;4955618;29;20238;-78
2024/02/06 11:05:10;;;;;;;1.15;1.15;;;10.30;99.90;;;;;;4958411;28;20207;-79
2024/02/06 11:08:03;;;;;;;0.60;0.60;;;10.40;99.90;;;;;;4948120;28;20568;-80
2024/02/06 11:10:36;;;;;;;1.55;1.45;;;10.40;99.90;;;;;;4948222;28;20203;-82
2024/02/06 11:13:06;;;;;;;0.60;0.60;;;10.50;99.90;;;;;;4952592;28;20220;-80
2024/02/06 11:15:40;;;;;;;0.65;0.65;;;10.40;99.90;;;;;;4954904;28;20203;-83
2024/02/06 11:18:10;;;;;;;0.60;0.60;;;10.50;99.90;;;;;;4957706;28;20239;-79
2024/02/06 11:20:40;;;;;;;0.70;0.70;;;10.50;99.90;;;;;;4947915;29;20226;-79
2024/02/06 11:23:07;;;;;;;0.60;0.60;;;10.50;99.90;;;;;;4967357;28;20215;-79
2024/02/06 11:25:43;;;;;;;0.70;0.70;;;10.50;99.90;;;;;;4959086;28;20204;-80
2024/02/06 11:28:11;;;;;;;0.60;0.60;;;10.80;99.90;;;;;;4946362;29;20204;-80
2024/02/06 11:30:39;;;;;;;0.60;0.60;;;10.90;99.90;;;;;;4958370;28;20522;-80
2024/02/06 11:33:07;;;;;;;0.80;0.80;;;11.00;99.90;;;;;;4965858;29;20259;-79
2024/02/06 11:35:37;;;;;;;1.02;1.02;;;10.90;99.90;;;;;;4960469;28;20278;-79
2024/02/06 11:38:05;;;;;;;0.70;0.70;;;10.90;99.90;;;;;;4952376;28;20212;-82
2024/02/06 11:40:32;;;;;;;1.83;1.73;;;10.80;99.90;;;;;;4951565;29;20213;-79
2024/02/06 11:43:06;;;;;;;0.60;0.60;;;10.80;99.90;;;;;;4972306;28;20205;-81
2024/02/06 11:45:36;;;;;;;0.80;0.80;;;10.70;99.90;;;;;;4971629;28;20188;-81
2024/02/06 11:48:05;;;;;;;0.60;0.60;;;10.80;99.90;;;;;;4961220;28;20266;-83
2024/02/06 11:50:40;;;;;;;0.70;0.70;;;10.90;99.90;;;;;;4962457;28;20215;-79
2024/02/06 11:53:13;;;;;;;0.85;0.85;;;10.80;99.90;;;;;;4945928;29;20531;-77
2024/02/06 11:55:44;;;;;;;2.38;2.17;;;10.80;99.90;;;;;;4954493;28;20203;-80
2024/02/06 11:58:13;;;;;;;0.60;0.60;;;10.80;99.90;;;;;;4962382;28;20509;-79
2024/02/06 12:00:40;;;;;;;1.98;1.88;;;10.80;99.90;;;;;;4954944;29;20229;-78
2024/02/06 12:03:08;;;;;;;0.70;0.70;;;10.70;99.90;;;;;;4960378;28;20205;-82
2024/02/06 12:05:37;;;;;;;0.77;0.77;;;10.80;99.90;;;;;;4935704;29;20204;-81
2024/02/06 12:08:08;;;;;;;0.60;0.60;;;10.70;99.90;;;;;;4952317;28;20237;-78
2024/02/06 12:10:36;;;;;;;0.80;0.80;;;10.70;99.90;;;;;;4958622;28;20259;-78
2024/02/06 12:13:06;;;;;;;0.70;0.70;;;10.60;99.90;;;;;;4955376;28;20256;-80
2024/02/06 12:15:35;;;;;;;0.70;0.70;;;10.60;99.90;;;;;;4951539;29;20204;-78
2024/02/06 12:18:03;;;;;;;0.70;0.70;;;10.60;99.90;;;;;;4961638;28;20195;-79
2024/02/06 12:20:31;;;;;;;2.95;2.75;;;10.60;99.90;;;;;;4962696;29;20232;-77
2024/02/06 12:22:59;;;;;;;0.60;0.60;;;10.40;99.90;;;;;;4963915;28;20213;-81
2024/02/06 12:25:26;;;;;;;0.90;0.90;;;10.50;99.90;;;;;;4941848;29;20212;-80
2024/02/06 12:28:02;;;;;;;1.00;1.00;;;10.60;99.90;;;;;;4939406;28;20211;-79
2024/02/06 12:30:30;;;;;;;0.70;0.70;;;10.60;99.90;;;;;;4958575;29;20212;-82
2024/02/06 12:33:01;;;;;;;0.70;0.70;;;10.50;99.90;;;;;;4954533;28;20302;-81
2024/02/06 12:35:29;;;;;;;3.50;3.25;;;10.50;99.90;;;;;;4942962;29;20235;-79
2024/02/06 12:38:00;;;;;;;0.80;0.80;;;10.50;99.90;;;;;;4957025;28;20218;-83
2024/02/06 12:40:30;;;;;;;0.80;0.80;;;10.50;99.90;;;;;;4950751;28;20208;-80
2024/02/06 12:43:05;;;;;;;0.60;0.60;;;10.50;99.90;;;;;;4959605;28;20262;-79
2024/02/06 12:45:34;;;;;;;0.60;0.60;;;10.60;99.90;;;;;;4957380;28;20211;-78
2024/02/06 12:48:02;;;;;;;1.88;1.77;;;10.60;99.90;;;;;;4954055;28;20270;-80
2024/02/06 12:50:31;;;;;;;0.70;0.70;;;10.60;99.90;;;;;;4950484;28;20212;-78
2024/02/06 12:52:59;;;;;;;0.70;0.70;;;10.50;99.90;;;;;;4958361;28;20254;-81
2024/02/06 12:55:27;;;;;;;0.60;0.60;;;10.50;99.90;;;;;;4953372;28;20261;-79
2024/02/06 12:57:57;;;;;;;0.73;0.73;;;10.40;99.90;;;;;;4960100;28;20215;-78
2024/02/06 13:00:24;;;;;;;0.70;0.70;;;10.40;99.90;;;;;;4930192;29;20235;-79